Yorktown Express — WDD6127 — position and weather

sailwx.info

Track history (hours):
 
Tides and Currents Weather Stations Pressure Air Temp Water Temp Dewpoint Dewpoint Depression Visibility Wind Speed Wind Dir Waves Ship Positions

Yorktown Express

Owner: Marine Transport Management, Inc., Jacksonville, FL. More information available from US FCC via Universal Licensing System and Coast Guard Vessel Documentation Center.

Last reported at 2016-Jun-28 18:27 UTC. Time now 2016-Jun-28 20:29 UTC.
Position N 35°22' W 075°14'.

Type: Ship. MMSI: 367168650.

Date/timePositionNaut miles runAvg speedWind from/ knotsBaromVisibWave heightAir tempDewpointWater temp
2016-Jun-28 18:27N 35°22' W 075°14'31819.7
2016-Jun-28 02:16N 31°57' W 080°06'1418.6
2016-Jun-28 01:31N 31°57' W 080°23'1717.6
2016-Jun-28 00:33N 31°57' W 080°43'1312.7
2016-Jun-27 23:34N 32°03' W 080°56'9 9.0
2016-Jun-27 22:33N 32°06' W 081°06'2 2.2
2016-Jun-27 21:33N 32°07' W 081°08'0 0.0
2016-Jun-27 20:22N 32°07' W 081°08'0 0.0
2016-Jun-27 19:16N 32°07' W 081°08'0 0.0
2016-Jun-27 18:28N 32°07' W 081°08'0 0.0
2016-Jun-27 17:28N 32°07' W 081°08'0 0.0
2016-Jun-27 16:22N 32°07' W 081°08'0 0.0
2016-Jun-27 15:28N 32°07' W 081°08'0 0.0
2016-Jun-27 14:28N 32°07' W 081°08'0 0.0
2016-Jun-27 13:28N 32°07' W 081°08'0 0.0
2016-Jun-27 12:10N 32°07' W 081°08'0 0.0
2016-Jun-27 11:28N 32°07' W 081°08'0 0.0
2016-Jun-27 10:17N 32°07' W 081°08'0 0.2
2016-Jun-27 09:33N 32°07' W 081°08'5 4.5
2016-Jun-27 08:32N 32°05' W 081°03'8 8.7
2016-Jun-27 07:33N 32°02' W 080°54'1211.5
2016-Jun-27 06:33N 31°57' W 080°42'6 6.1
2016-Jun-27 05:33N 31°52' W 080°37'1514.5
2016-Jun-27 04:31N 31°40' W 080°28'1919.7
2016-Jun-27 03:33N 31°23' W 080°17'26021.2
2016-Jun-26 15:18N 27°05' W 079°43'1824.3
2016-Jun-26 14:33N 26°46' W 079°45'2424.5
2016-Jun-26 13:33N 26°22' W 079°47'2424.4
2016-Jun-26 12:33N 25°58' W 079°50'2524.6
2016-Jun-26 11:33N 25°34' W 079°55'82518.3
2016-Jun-24 14:33N 29°22' W 094°48'1211.5
2016-Jun-24 13:33N 29°33' W 094°54'10 9.2
2016-Jun-24 12:31N 29°41' W 094°60'0 0.0
2016-Jun-24 10:13N 29°41' W 094°60'0 0.0
2016-Jun-24 09:22N 29°41' W 094°60'0 0.0
2016-Jun-24 08:31N 29°41' W 094°60'0 0.0
2016-Jun-24 07:25N 29°41' W 094°60'0 0.0
2016-Jun-24 04:31N 29°41' W 094°60'0 0.0
2016-Jun-24 03:22N 29°41' W 094°60'0 0.0
2016-Jun-24 02:19N 29°41' W 094°60'0 0.0
2016-Jun-24 01:25N 29°41' W 094°60'0 0.0
2016-Jun-24 00:28N 29°41' W 094°60'0 0.0
2016-Jun-23 23:31N 29°41' W 094°60'0 0.0
2016-Jun-23 22:28N 29°41' W 094°60'0 0.0
2016-Jun-23 21:22N 29°41' W 094°60'0 0.0
2016-Jun-23 20:25N 29°41' W 094°60'0 0.0
2016-Jun-23 19:31N 29°41' W 094°60'0 0.0
2016-Jun-23 18:28N 29°41' W 094°60'0 0.0
2016-Jun-23 17:31N 29°41' W 094°60'0 0.0
2016-Jun-23 16:31N 29°41' W 094°60'0 0.0
2016-Jun-23 15:31N 29°41' W 094°60'0 0.0
2016-Jun-23 14:10N 29°41' W 094°60'0 0.0
2016-Jun-23 13:16N 29°41' W 094°60'0 0.0
2016-Jun-23 10:25N 29°41' W 094°60'0 0.0
2016-Jun-23 09:28N 29°41' W 094°60'0 0.0
2016-Jun-23 07:07N 29°41' W 094°60'4 2.4
2016-Jun-23 05:33N 29°38' W 094°58'1211.4
2016-Jun-23 04:32N 29°28' W 094°51'1010.1
2016-Jun-23 03:33N 29°21' W 094°43'1110.5
2016-Jun-23 02:30N 29°15' W 094°32'8 8.8
2016-Jun-23 01:33N 29°10' W 094°24'1414.0
2016-Jun-23 00:33N 29°02' W 094°11'3213.8
2016-Jun-22 22:13N 28°43' W 093°41'913.4
2016-Jun-22 21:33N 28°38' W 093°32'74617.6
2016-Jun-21 03:03N 25°33' W 080°00'917.7
2016-Jun-21 02:33N 25°42' W 079°59'1716.8
2016-Jun-21 01:33N 25°59' W 079°57'1616.3
2016-Jun-21 00:33N 26°15' W 079°55'1717.4
2016-Jun-20 23:33N 26°32' W 079°55'1919.5
2016-Jun-20 22:33N 26°52' W 079°55'29319.5
2016-Jun-20 07:32N 31°42' W 080°34'1717.2
2016-Jun-20 06:33N 31°57' W 080°43'1212.3
2016-Jun-20 05:34N 32°03' W 080°56'9 9.0
2016-Jun-20 04:33N 32°06' W 081°06'2 2.3
2016-Jun-20 03:30N 32°07' W 081°08'0 0.0
2016-Jun-20 02:30N 32°07' W 081°08'0 0.0
2016-Jun-20 01:30N 32°07' W 081°08'0 0.0
2016-Jun-20 00:30N 32°07' W 081°08'0 0.0
2016-Jun-19 23:30N 32°07' W 081°08'0 0.0
2016-Jun-19 22:30N 32°07' W 081°08'0 0.0
2016-Jun-19 21:24N 32°07' W 081°08'0 0.0
2016-Jun-19 20:18N 32°07' W 081°08'0 0.0
2016-Jun-19 19:24N 32°07' W 081°08'0 0.0
2016-Jun-19 18:30N 32°07' W 081°08'0 0.0
2016-Jun-19 17:18N 32°07' W 081°08'0 0.0
2016-Jun-19 16:30N 32°07' W 081°08'0 0.0
2016-Jun-19 15:24N 32°07' W 081°08'0 0.0
2016-Jun-19 13:30N 32°07' W 081°08'0 0.0
2016-Jun-19 12:30N 32°07' W 081°08'0 0.0
2016-Jun-19 11:30N 32°07' W 081°08'0 0.0
2016-Jun-19 10:30N 32°07' W 081°08'1 0.7
2016-Jun-19 09:33N 32°07' W 081°08'5 4.6
2016-Jun-19 08:33N 32°05' W 081°03'7 7.3
2016-Jun-19 07:33N 32°02' W 080°55'1110.8
2016-Jun-19 06:33N 31°58' W 080°43'8 8.1
2016-Jun-19 05:33N 31°57' W 080°34'7 7.0
2016-Jun-19 04:33N 31°57' W 080°25'  
Track history (hours):
 
Tides and Currents Weather Stations Pressure Air Temp Water Temp Dewpoint Dewpoint Depression Visibility Wind Speed Wind Dir Waves Ship Positions

Yorktown Express

Owner: Marine Transport Management, Inc., Jacksonville, FL. More information available from US FCC via Universal Licensing System and Coast Guard Vessel Documentation Center.

Last reported at 2016-Jun-28 18:27 UTC. Time now 2016-Jun-28 20:29 UTC.
Position N 35°22' W 075°14'.

Type: Ship. MMSI: 367168650.

Date/timePositionNaut miles runAvg speedWind from/ knotsBaromVisibWave heightAir tempDewpointWater temp
2016-Jun-28 18:27N 35°22' W 075°14'31819.7
2016-Jun-28 02:16N 31°57' W 080°06'1418.6
2016-Jun-28 01:31N 31°57' W 080°23'1717.6
2016-Jun-28 00:33N 31°57' W 080°43'1312.7
2016-Jun-27 23:34N 32°03' W 080°56'9 9.0
2016-Jun-27 22:33N 32°06' W 081°06'2 2.2
2016-Jun-27 21:33N 32°07' W 081°08'0 0.0
2016-Jun-27 20:22N 32°07' W 081°08'0 0.0
2016-Jun-27 19:16N 32°07' W 081°08'0 0.0
2016-Jun-27 18:28N 32°07' W 081°08'0 0.0
2016-Jun-27 17:28N 32°07' W 081°08'0 0.0
2016-Jun-27 16:22N 32°07' W 081°08'0 0.0
2016-Jun-27 15:28N 32°07' W 081°08'0 0.0
2016-Jun-27 14:28N 32°07' W 081°08'0 0.0
2016-Jun-27 13:28N 32°07' W 081°08'0 0.0
2016-Jun-27 12:10N 32°07' W 081°08'0 0.0
2016-Jun-27 11:28N 32°07' W 081°08'0 0.0
2016-Jun-27 10:17N 32°07' W 081°08'0 0.2
2016-Jun-27 09:33N 32°07' W 081°08'5 4.5
2016-Jun-27 08:32N 32°05' W 081°03'8 8.7
2016-Jun-27 07:33N 32°02' W 080°54'1211.5
2016-Jun-27 06:33N 31°57' W 080°42'6 6.1
2016-Jun-27 05:33N 31°52' W 080°37'1514.5
2016-Jun-27 04:31N 31°40' W 080°28'1919.7
2016-Jun-27 03:33N 31°23' W 080°17'26021.2
2016-Jun-26 15:18N 27°05' W 079°43'1824.3
2016-Jun-26 14:33N 26°46' W 079°45'2424.5
2016-Jun-26 13:33N 26°22' W 079°47'2424.4
2016-Jun-26 12:33N 25°58' W 079°50'2524.6
2016-Jun-26 11:33N 25°34' W 079°55'82518.3
2016-Jun-24 14:33N 29°22' W 094°48'1211.5
2016-Jun-24 13:33N 29°33' W 094°54'10 9.2
2016-Jun-24 12:31N 29°41' W 094°60'0 0.0
2016-Jun-24 10:13N 29°41' W 094°60'0 0.0
2016-Jun-24 09:22N 29°41' W 094°60'0 0.0
2016-Jun-24 08:31N 29°41' W 094°60'0 0.0
2016-Jun-24 07:25N 29°41' W 094°60'0 0.0
2016-Jun-24 04:31N 29°41' W 094°60'0 0.0
2016-Jun-24 03:22N 29°41' W 094°60'0 0.0
2016-Jun-24 02:19N 29°41' W 094°60'0 0.0
2016-Jun-24 01:25N 29°41' W 094°60'0 0.0
2016-Jun-24 00:28N 29°41' W 094°60'0 0.0
2016-Jun-23 23:31N 29°41' W 094°60'0 0.0
2016-Jun-23 22:28N 29°41' W 094°60'0 0.0
2016-Jun-23 21:22N 29°41' W 094°60'0 0.0
2016-Jun-23 20:25N 29°41' W 094°60'0 0.0
2016-Jun-23 19:31N 29°41' W 094°60'0 0.0
2016-Jun-23 18:28N 29°41' W 094°60'0 0.0
2016-Jun-23 17:31N 29°41' W 094°60'0 0.0
2016-Jun-23 16:31N 29°41' W 094°60'0 0.0
2016-Jun-23 15:31N 29°41' W 094°60'0 0.0
2016-Jun-23 14:10N 29°41' W 094°60'0 0.0
2016-Jun-23 13:16N 29°41' W 094°60'0 0.0
2016-Jun-23 10:25N 29°41' W 094°60'0 0.0
2016-Jun-23 09:28N 29°41' W 094°60'0 0.0
2016-Jun-23 07:07N 29°41' W 094°60'4 2.4
2016-Jun-23 05:33N 29°38' W 094°58'1211.4
2016-Jun-23 04:32N 29°28' W 094°51'1010.1
2016-Jun-23 03:33N 29°21' W 094°43'1110.5
2016-Jun-23 02:30N 29°15' W 094°32'8 8.8
2016-Jun-23 01:33N 29°10' W 094°24'1414.0
2016-Jun-23 00:33N 29°02' W 094°11'3213.8
2016-Jun-22 22:13N 28°43' W 093°41'913.4
2016-Jun-22 21:33N 28°38' W 093°32'74617.6
2016-Jun-21 03:03N 25°33' W 080°00'917.7
2016-Jun-21 02:33N 25°42' W 079°59'1716.8
2016-Jun-21 01:33N 25°59' W 079°57'1616.3
2016-Jun-21 00:33N 26°15' W 079°55'1717.4
2016-Jun-20 23:33N 26°32' W 079°55'1919.5
2016-Jun-20 22:33N 26°52' W 079°55'29319.5
2016-Jun-20 07:32N 31°42' W 080°34'1717.2
2016-Jun-20 06:33N 31°57' W 080°43'1212.3
2016-Jun-20 05:34N 32°03' W 080°56'9 9.0
2016-Jun-20 04:33N 32°06' W 081°06'2 2.3
2016-Jun-20 03:30N 32°07' W 081°08'0 0.0
2016-Jun-20 02:30N 32°07' W 081°08'0 0.0
2016-Jun-20 01:30N 32°07' W 081°08'0 0.0
2016-Jun-20 00:30N 32°07' W 081°08'0 0.0
2016-Jun-19 23:30N 32°07' W 081°08'0 0.0
2016-Jun-19 22:30N 32°07' W 081°08'0 0.0
2016-Jun-19 21:24N 32°07' W 081°08'0 0.0
2016-Jun-19 20:18N 32°07' W 081°08'0 0.0
2016-Jun-19 19:24N 32°07' W 081°08'0 0.0
2016-Jun-19 18:30N 32°07' W 081°08'0 0.0
2016-Jun-19 17:18N 32°07' W 081°08'0 0.0
2016-Jun-19 16:30N 32°07' W 081°08'0 0.0
2016-Jun-19 15:24N 32°07' W 081°08'0 0.0
2016-Jun-19 13:30N 32°07' W 081°08'0 0.0
2016-Jun-19 12:30N 32°07' W 081°08'0 0.0
2016-Jun-19 11:30N 32°07' W 081°08'0 0.0
2016-Jun-19 10:30N 32°07' W 081°08'1 0.7
2016-Jun-19 09:33N 32°07' W 081°08'5 4.6
2016-Jun-19 08:33N 32°05' W 081°03'7 7.3
2016-Jun-19 07:33N 32°02' W 080°55'1110.8
2016-Jun-19 06:33N 31°58' W 080°43'8 8.1
2016-Jun-19 05:33N 31°57' W 080°34'7 7.0
2016-Jun-19 04:33N 31°57' W 080°25'  

Dump ship's entire track history